sensor_id;sensor_type;location;lat;lon;timestamp;temperature;humidity
46440;DHT22;32138;50.966;6.968;2023-07-22T00:00:03;17.60;90.80
46440;DHT22;32138;50.966;6.968;2023-07-22T00:01:42;17.70;90.80
46440;DHT22;32138;50.966;6.968;2023-07-22T00:03:12;17.70;90.80
46440;DHT22;32138;50.966;6.968;2023-07-22T00:04:43;17.60;90.90
46440;DHT22;32138;50.966;6.968;2023-07-22T00:06:14;17.60;90.80
46440;DHT22;32138;50.966;6.968;2023-07-22T00:07:45;17.60;90.80
46440;DHT22;32138;50.966;6.968;2023-07-22T00:09:16;17.60;90.90
46440;DHT22;32138;50.966;6.968;2023-07-22T00:10:46;17.70;90.80
46440;DHT22;32138;50.966;6.968;2023-07-22T00:12:17;17.60;90.90
46440;DHT22;32138;50.966;6.968;2023-07-22T00:13:48;17.50;91.00
46440;DHT22;32138;50.966;6.968;2023-07-22T00:15:19;17.40;91.20
46440;DHT22;32138;50.966;6.968;2023-07-22T00:16:50;17.50;91.20
46440;DHT22;32138;50.966;6.968;2023-07-22T00:18:21;17.50;91.40
46440;DHT22;32138;50.966;6.968;2023-07-22T00:19:54;17.60;91.30
46440;DHT22;32138;50.966;6.968;2023-07-22T00:21:24;17.40;91.20
46440;DHT22;32138;50.966;6.968;2023-07-22T00:22:55;17.20;91.40
46440;DHT22;32138;50.966;6.968;2023-07-22T00:24:26;17.10;91.60
46440;DHT22;32138;50.966;6.968;2023-07-22T00:25:57;17.10;91.20
46440;DHT22;32138;50.966;6.968;2023-07-22T00:27:27;16.90;91.40
46440;DHT22;32138;50.966;6.968;2023-07-22T00:28:58;16.80;91.70
46440;DHT22;32138;50.966;6.968;2023-07-22T00:30:29;16.80;91.60
46440;DHT22;32138;50.966;6.968;2023-07-22T00:32:00;16.70;91.80
46440;DHT22;32138;50.966;6.968;2023-07-22T00:33:30;16.70;91.80
46440;DHT22;32138;50.966;6.968;2023-07-22T00:35:01;16.70;91.70
46440;DHT22;32138;50.966;6.968;2023-07-22T00:36:32;16.60;91.90
46440;DHT22;32138;50.966;6.968;2023-07-22T00:38:03;16.60;91.90
46440;DHT22;32138;50.966;6.968;2023-07-22T00:39:34;16.60;91.90
46440;DHT22;32138;50.966;6.968;2023-07-22T00:41:05;16.70;91.80
46440;DHT22;32138;50.966;6.968;2023-07-22T00:42:38;16.60;91.90
46440;DHT22;32138;50.966;6.968;2023-07-22T00:44:09;16.70;91.80
46440;DHT22;32138;50.966;6.968;2023-07-22T00:45:41;16.70;91.90
46440;DHT22;32138;50.966;6.968;2023-07-22T00:47:12;16.50;92.10
46440;DHT22;32138;50.966;6.968;2023-07-22T00:48:43;16.60;92.10
46440;DHT22;32138;50.966;6.968;2023-07-22T00:50:14;16.70;91.90
46440;DHT22;32138;50.966;6.968;2023-07-22T00:51:44;16.70;91.80
46440;DHT22;32138;50.966;6.968;2023-07-22T00:53:15;16.70;91.80
46440;DHT22;32138;50.966;6.968;2023-07-22T00:54:46;16.70;91.70
46440;DHT22;32138;50.966;6.968;2023-07-22T00:56:17;16.70;91.70
46440;DHT22;32138;50.966;6.968;2023-07-22T00:57:48;16.70;91.80
46440;DHT22;32138;50.966;6.968;2023-07-22T00:59:19;16.60;91.90
46440;DHT22;32138;50.966;6.968;2023-07-22T01:00:51;16.50;92.10
46440;DHT22;32138;50.966;6.968;2023-07-22T01:02:23;16.50;92.20
46440;DHT22;32138;50.966;6.968;2023-07-22T01:03:54;16.40;92.10
46440;DHT22;32138;50.966;6.968;2023-07-22T01:05:26;16.40;92.30
46440;DHT22;32138;50.966;6.968;2023-07-22T01:06:57;16.50;92.20
46440;DHT22;32138;50.966;6.968;2023-07-22T01:08:29;16.30;92.60
46440;DHT22;32138;50.966;6.968;2023-07-22T01:10:00;16.50;92.30
46440;DHT22;32138;50.966;6.968;2023-07-22T01:11:30;16.60;92.40
46440;DHT22;32138;50.966;6.968;2023-07-22T01:13:01;16.60;92.00
46440;DHT22;32138;50.966;6.968;2023-07-22T01:14:33;16.60;92.00
46440;DHT22;32138;50.966;6.968;2023-07-22T01:16:06;16.70;92.00
46440;DHT22;32138;50.966;6.968;2023-07-22T01:17:37;16.70;92.00
46440;DHT22;32138;50.966;6.968;2023-07-22T01:19:10;16.80;91.80
46440;DHT22;32138;50.966;6.968;2023-07-22T01:20:43;16.80;91.90
46440;DHT22;32138;50.966;6.968;2023-07-22T01:22:16;16.80;91.80
46440;DHT22;32138;50.966;6.968;2023-07-22T01:23:48;16.90;91.60
46440;DHT22;32138;50.966;6.968;2023-07-22T01:25:20;16.90;91.90
46440;DHT22;32138;50.966;6.968;2023-07-22T01:26:52;17.10;91.50
46440;DHT22;32138;50.966;6.968;2023-07-22T01:28:22;17.20;91.40
46440;DHT22;32138;50.966;6.968;2023-07-22T01:29:53;17.30;91.30
46440;DHT22;32138;50.966;6.968;2023-07-22T01:31:24;17.30;91.20
46440;DHT22;32138;50.966;6.968;2023-07-22T01:32:55;17.30;91.40
46440;DHT22;32138;50.966;6.968;2023-07-22T01:34:25;17.10;91.50
46440;DHT22;32138;50.966;6.968;2023-07-22T01:35:56;17.10;91.70
46440;DHT22;32138;50.966;6.968;2023-07-22T01:37:27;17.10;91.60
46440;DHT22;32138;50.966;6.968;2023-07-22T01:38:58;17.00;91.70
46440;DHT22;32138;50.966;6.968;2023-07-22T01:40:29;17.10;91.80
46440;DHT22;32138;50.966;6.968;2023-07-22T01:42:02;17.20;91.80
46440;DHT22;32138;50.966;6.968;2023-07-22T01:43:33;17.10;92.00
46440;DHT22;32138;50.966;6.968;2023-07-22T01:45:04;16.90;92.30
46440;DHT22;32138;50.966;6.968;2023-07-22T01:46:38;16.80;92.20
46440;DHT22;32138;50.966;6.968;2023-07-22T01:48:08;16.90;92.20
46440;DHT22;32138;50.966;6.968;2023-07-22T01:49:39;16.80;92.40
46440;DHT22;32138;50.966;6.968;2023-07-22T01:51:10;16.90;92.40
46440;DHT22;32138;50.966;6.968;2023-07-22T01:52:41;17.00;92.30
46440;DHT22;32138;50.966;6.968;2023-07-22T01:54:12;17.10;92.40
46440;DHT22;32138;50.966;6.968;2023-07-22T01:55:43;17.10;92.70
46440;DHT22;32138;50.966;6.968;2023-07-22T01:57:14;17.20;92.70
46440;DHT22;32138;50.966;6.968;2023-07-22T01:58:45;17.20;92.90
46440;DHT22;32138;50.966;6.968;2023-07-22T02:00:16;17.10;93.00
46440;DHT22;32138;50.966;6.968;2023-07-22T02:01:46;17.00;93.20
46440;DHT22;32138;50.966;6.968;2023-07-22T02:03:18;17.10;93.30
46440;DHT22;32138;50.966;6.968;2023-07-22T02:04:48;17.10;93.40
46440;DHT22;32138;50.966;6.968;2023-07-22T02:06:19;16.90;93.80
46440;DHT22;32138;50.966;6.968;2023-07-22T02:07:51;16.80;94.20
46440;DHT22;32138;50.966;6.968;2023-07-22T02:09:22;16.80;94.40
46440;DHT22;32138;50.966;6.968;2023-07-22T02:10:52;16.60;94.60
46440;DHT22;32138;50.966;6.968;2023-07-22T02:12:23;16.50;94.90
46440;DHT22;32138;50.966;6.968;2023-07-22T02:13:54;16.50;94.80
46440;DHT22;32138;50.966;6.968;2023-07-22T02:15:24;16.50;94.90
46440;DHT22;32138;50.966;6.968;2023-07-22T02:16:55;16.30;95.10
46440;DHT22;32138;50.966;6.968;2023-07-22T02:18:26;16.50;95.00
46440;DHT22;32138;50.966;6.968;2023-07-22T02:19:57;16.80;94.60
46440;DHT22;32138;50.966;6.968;2023-07-22T02:21:28;16.70;94.60
46440;DHT22;32138;50.966;6.968;2023-07-22T02:22:59;16.30;95.20
46440;DHT22;32138;50.966;6.968;2023-07-22T02:24:30;16.30;95.50
46440;DHT22;32138;50.966;6.968;2023-07-22T02:26:01;16.30;95.60
46440;DHT22;32138;50.966;6.968;2023-07-22T02:27:32;16.30;95.70
46440;DHT22;32138;50.966;6.968;2023-07-22T02:29:03;16.20;95.80
46440;DHT22;32138;50.966;6.968;2023-07-22T02:30:35;16.20;96.00
46440;DHT22;32138;50.966;6.968;2023-07-22T02:32:06;16.10;96.10
46440;DHT22;32138;50.966;6.968;2023-07-22T02:33:38;16.10;96.30
46440;DHT22;32138;50.966;6.968;2023-07-22T02:35:10;16.10;96.30
46440;DHT22;32138;50.966;6.968;2023-07-22T02:36:41;16.20;96.10
46440;DHT22;32138;50.966;6.968;2023-07-22T02:38:11;16.20;96.20
46440;DHT22;32138;50.966;6.968;2023-07-22T02:39:44;16.00;96.60
46440;DHT22;32138;50.966;6.968;2023-07-22T02:41:15;15.90;96.70
46440;DHT22;32138;50.966;6.968;2023-07-22T02:42:46;15.90;96.80
46440;DHT22;32138;50.966;6.968;2023-07-22T02:44:16;16.00;96.70
46440;DHT22;32138;50.966;6.968;2023-07-22T02:45:47;16.00;96.80
46440;DHT22;32138;50.966;6.968;2023-07-22T02:47:18;15.90;96.80
46440;DHT22;32138;50.966;6.968;2023-07-22T02:48:49;15.80;97.00
46440;DHT22;32138;50.966;6.968;2023-07-22T02:50:19;15.90;96.80
46440;DHT22;32138;50.966;6.968;2023-07-22T02:51:50;15.90;97.10
46440;DHT22;32138;50.966;6.968;2023-07-22T02:53:21;15.70;97.50
46440;DHT22;32138;50.966;6.968;2023-07-22T02:55:12;15.70;97.20
46440;DHT22;32138;50.966;6.968;2023-07-22T02:56:49;15.80;97.20
46440;DHT22;32138;50.966;6.968;2023-07-22T02:58:19;15.70;97.30
46440;DHT22;32138;50.966;6.968;2023-07-22T02:59:50;15.70;97.50
46440;DHT22;32138;50.966;6.968;2023-07-22T03:01:21;15.80;97.50
46440;DHT22;32138;50.966;6.968;2023-07-22T03:02:53;15.90;97.20
46440;DHT22;32138;50.966;6.968;2023-07-22T03:04:24;15.80;97.30
46440;DHT22;32138;50.966;6.968;2023-07-22T03:05:55;15.80;97.40
46440;DHT22;32138;50.966;6.968;2023-07-22T03:07:27;15.80;97.70
46440;DHT22;32138;50.966;6.968;2023-07-22T03:08:58;15.90;97.40
46440;DHT22;32138;50.966;6.968;2023-07-22T03:10:29;15.90;97.40
46440;DHT22;32138;50.966;6.968;2023-07-22T03:12:00;15.70;97.70
46440;DHT22;32138;50.966;6.968;2023-07-22T03:13:30;15.80;97.70
46440;DHT22;32138;50.966;6.968;2023-07-22T03:15:01;15.70;97.80
46440;DHT22;32138;50.966;6.968;2023-07-22T03:16:34;15.80;97.50
46440;DHT22;32138;50.966;6.968;2023-07-22T03:18:05;15.70;98.00
46440;DHT22;32138;50.966;6.968;2023-07-22T03:19:40;15.80;97.70
46440;DHT22;32138;50.966;6.968;2023-07-22T03:21:10;16.00;97.40
46440;DHT22;32138;50.966;6.968;2023-07-22T03:22:41;16.10;97.50
46440;DHT22;32138;50.966;6.968;2023-07-22T03:24:12;16.10;97.30
46440;DHT22;32138;50.966;6.968;2023-07-22T03:25:43;16.10;97.20
46440;DHT22;32138;50.966;6.968;2023-07-22T03:27:14;16.10;97.20
46440;DHT22;32138;50.966;6.968;2023-07-22T03:28:45;15.90;97.60
46440;DHT22;32138;50.966;6.968;2023-07-22T03:30:17;16.00;97.40
46440;DHT22;32138;50.966;6.968;2023-07-22T03:31:48;15.90;97.80
46440;DHT22;32138;50.966;6.968;2023-07-22T03:33:19;15.90;97.70
46440;DHT22;32138;50.966;6.968;2023-07-22T03:34:50;15.80;97.90
46440;DHT22;32138;50.966;6.968;2023-07-22T03:36:21;15.70;97.90
46440;DHT22;32138;50.966;6.968;2023-07-22T03:37:52;15.90;97.90
46440;DHT22;32138;50.966;6.968;2023-07-22T03:39:23;15.90;97.90
46440;DHT22;32138;50.966;6.968;2023-07-22T03:40:53;16.00;97.60
46440;DHT22;32138;50.966;6.968;2023-07-22T03:42:24;16.10;97.30
46440;DHT22;32138;50.966;6.968;2023-07-22T03:43:55;16.00;97.50
46440;DHT22;32138;50.966;6.968;2023-07-22T03:45:26;15.90;97.80
46440;DHT22;32138;50.966;6.968;2023-07-22T03:46:56;15.90;97.70
46440;DHT22;32138;50.966;6.968;2023-07-22T03:48:27;16.00;97.50
46440;DHT22;32138;50.966;6.968;2023-07-22T03:49:58;16.20;97.40
46440;DHT22;32138;50.966;6.968;2023-07-22T03:51:29;16.00;97.60
46440;DHT22;32138;50.966;6.968;2023-07-22T03:53:00;15.80;98.00
46440;DHT22;32138;50.966;6.968;2023-07-22T03:54:31;15.80;98.30
46440;DHT22;32138;50.966;6.968;2023-07-22T03:56:01;15.70;98.50
46440;DHT22;32138;50.966;6.968;2023-07-22T03:57:33;15.70;98.60
46440;DHT22;32138;50.966;6.968;2023-07-22T03:59:03;15.60;98.60
46440;DHT22;32138;50.966;6.968;2023-07-22T04:00:34;15.60;98.90
46440;DHT22;32138;50.966;6.968;2023-07-22T04:02:05;15.70;98.70
46440;DHT22;32138;50.966;6.968;2023-07-22T04:03:36;15.70;98.80
46440;DHT22;32138;50.966;6.968;2023-07-22T04:05:07;15.80;98.80
46440;DHT22;32138;50.966;6.968;2023-07-22T04:06:38;15.80;98.40
46440;DHT22;32138;50.966;6.968;2023-07-22T04:08:09;15.80;98.50
46440;DHT22;32138;50.966;6.968;2023-07-22T04:09:40;16.00;98.20
46440;DHT22;32138;50.966;6.968;2023-07-22T04:11:11;16.00;98.20
46440;DHT22;32138;50.966;6.968;2023-07-22T04:12:44;16.10;98.10
46440;DHT22;32138;50.966;6.968;2023-07-22T04:14:15;16.10;98.00
46440;DHT22;32138;50.966;6.968;2023-07-22T04:15:49;15.90;98.10
46440;DHT22;32138;50.966;6.968;2023-07-22T04:17:19;15.80;98.30
46440;DHT22;32138;50.966;6.968;2023-07-22T04:18:50;16.00;98.10
46440;DHT22;32138;50.966;6.968;2023-07-22T04:20:21;15.90;97.90
46440;DHT22;32138;50.966;6.968;2023-07-22T04:21:54;15.80;98.10
46440;DHT22;32138;50.966;6.968;2023-07-22T04:23:25;15.80;97.90
46440;DHT22;32138;50.966;6.968;2023-07-22T04:24:56;15.90;97.90
46440;DHT22;32138;50.966;6.968;2023-07-22T04:26:27;15.80;97.80
46440;DHT22;32138;50.966;6.968;2023-07-22T04:27:57;15.90;97.80
46440;DHT22;32138;50.966;6.968;2023-07-22T04:29:28;15.90;97.80
46440;DHT22;32138;50.966;6.968;2023-07-22T04:30:59;15.90;98.00
46440;DHT22;32138;50.966;6.968;2023-07-22T04:32:30;15.80;98.10
46440;DHT22;32138;50.966;6.968;2023-07-22T04:34:01;15.90;98.10
46440;DHT22;32138;50.966;6.968;2023-07-22T04:35:32;16.00;98.20
46440;DHT22;32138;50.966;6.968;2023-07-22T04:37:04;16.00;98.50
46440;DHT22;32138;50.966;6.968;2023-07-22T04:38:35;15.90;98.90
46440;DHT22;32138;50.966;6.968;2023-07-22T04:40:06;15.90;99.20
46440;DHT22;32138;50.966;6.968;2023-07-22T04:41:39;15.90;99.40
46440;DHT22;32138;50.966;6.968;2023-07-22T04:43:10;15.70;99.90
46440;DHT22;32138;50.966;6.968;2023-07-22T04:44:41;15.70;99.90
46440;DHT22;32138;50.966;6.968;2023-07-22T04:46:11;15.70;99.90
46440;DHT22;32138;50.966;6.968;2023-07-22T04:47:42;15.70;99.90
46440;DHT22;32138;50.966;6.968;2023-07-22T04:49:17;15.80;99.90
46440;DHT22;32138;50.966;6.968;2023-07-22T04:50:48;16.00;99.90
46440;DHT22;32138;50.966;6.968;2023-07-22T04:52:18;16.00;99.90
46440;DHT22;32138;50.966;6.968;2023-07-22T04:53:49;15.90;99.90
46440;DHT22;32138;50.966;6.968;2023-07-22T04:55:20;16.00;99.90
46440;DHT22;32138;50.966;6.968;2023-07-22T04:56:51;16.00;99.90
46440;DHT22;32138;50.966;6.968;2023-07-22T04:58:22;16.00;99.90
46440;DHT22;32138;50.966;6.968;2023-07-22T04:59:52;15.90;99.90
46440;DHT22;32138;50.966;6.968;2023-07-22T05:01:23;15.80;99.90
46440;DHT22;32138;50.966;6.968;2023-07-22T05:02:54;15.80;99.90
46440;DHT22;32138;50.966;6.968;2023-07-22T05:04:26;15.80;99.90
46440;DHT22;32138;50.966;6.968;2023-07-22T05:05:57;15.60;99.90
46440;DHT22;32138;50.966;6.968;2023-07-22T05:07:28;15.70;99.90
46440;DHT22;32138;50.966;6.968;2023-07-22T05:08:59;15.80;99.90
46440;DHT22;32138;50.966;6.968;2023-07-22T05:10:30;15.80;99.90
46440;DHT22;32138;50.966;6.968;2023-07-22T05:12:00;15.80;99.90
46440;DHT22;32138;50.966;6.968;2023-07-22T05:13:31;15.80;99.90
46440;DHT22;32138;50.966;6.968;2023-07-22T05:15:02;15.80;99.90
46440;DHT22;32138;50.966;6.968;2023-07-22T05:16:33;15.70;99.90
46440;DHT22;32138;50.966;6.968;2023-07-22T05:18:04;15.90;99.90
46440;DHT22;32138;50.966;6.968;2023-07-22T05:19:34;15.70;99.90
46440;DHT22;32138;50.966;6.968;2023-07-22T05:21:05;15.90;99.90
46440;DHT22;32138;50.966;6.968;2023-07-22T05:22:37;15.90;99.90
46440;DHT22;32138;50.966;6.968;2023-07-22T05:24:08;16.00;99.90
46440;DHT22;32138;50.966;6.968;2023-07-22T05:25:39;16.00;99.90
46440;DHT22;32138;50.966;6.968;2023-07-22T05:27:10;16.10;99.90
46440;DHT22;32138;50.966;6.968;2023-07-22T05:28:40;15.90;99.90
46440;DHT22;32138;50.966;6.968;2023-07-22T05:30:11;16.00;99.90
46440;DHT22;32138;50.966;6.968;2023-07-22T05:31:42;16.00;99.90
46440;DHT22;32138;50.966;6.968;2023-07-22T05:33:13;15.90;99.90
46440;DHT22;32138;50.966;6.968;2023-07-22T05:34:43;15.70;99.90
46440;DHT22;32138;50.966;6.968;2023-07-22T05:36:14;15.70;99.90
46440;DHT22;32138;50.966;6.968;2023-07-22T05:37:45;15.80;99.90
46440;DHT22;32138;50.966;6.968;2023-07-22T05:39:16;15.90;99.90
46440;DHT22;32138;50.966;6.968;2023-07-22T05:40:48;16.00;99.90
46440;DHT22;32138;50.966;6.968;2023-07-22T05:42:19;16.10;99.90
46440;DHT22;32138;50.966;6.968;2023-07-22T05:43:50;16.00;99.90
46440;DHT22;32138;50.966;6.968;2023-07-22T05:45:21;16.10;99.90
46440;DHT22;32138;50.966;6.968;2023-07-22T05:46:51;16.20;99.90
46440;DHT22;32138;50.966;6.968;2023-07-22T05:48:22;16.20;99.90
46440;DHT22;32138;50.966;6.968;2023-07-22T05:49:53;16.00;99.90
46440;DHT22;32138;50.966;6.968;2023-07-22T05:51:24;16.00;99.90
46440;DHT22;32138;50.966;6.968;2023-07-22T05:52:54;16.20;99.90
46440;DHT22;32138;50.966;6.968;2023-07-22T05:54:25;16.30;99.90
46440;DHT22;32138;50.966;6.968;2023-07-22T05:55:56;16.50;99.90
46440;DHT22;32138;50.966;6.968;2023-07-22T05:57:27;16.50;99.90
46440;DHT22;32138;50.966;6.968;2023-07-22T05:58:57;16.50;99.90
46440;DHT22;32138;50.966;6.968;2023-07-22T06:00:28;16.30;99.90
46440;DHT22;32138;50.966;6.968;2023-07-22T06:01:59;16.50;99.90
46440;DHT22;32138;50.966;6.968;2023-07-22T06:03:30;16.50;99.90
46440;DHT22;32138;50.966;6.968;2023-07-22T06:05:00;16.40;99.90
46440;DHT22;32138;50.966;6.968;2023-07-22T06:06:31;16.30;99.90
46440;DHT22;32138;50.966;6.968;2023-07-22T06:08:03;16.20;99.90
46440;DHT22;32138;50.966;6.968;2023-07-22T06:09:34;16.20;99.90
46440;DHT22;32138;50.966;6.968;2023-07-22T06:11:05;16.10;99.90
46440;DHT22;32138;50.966;6.968;2023-07-22T06:12:36;16.00;99.90
46440;DHT22;32138;50.966;6.968;2023-07-22T06:14:07;16.10;99.90
46440;DHT22;32138;50.966;6.968;2023-07-22T06:15:38;16.30;99.90
46440;DHT22;32138;50.966;6.968;2023-07-22T06:17:09;16.40;99.90
46440;DHT22;32138;50.966;6.968;2023-07-22T06:18:40;16.60;99.90
46440;DHT22;32138;50.966;6.968;2023-07-22T06:20:11;16.80;99.60
46440;DHT22;32138;50.966;6.968;2023-07-22T06:21:42;16.70;99.60
46440;DHT22;32138;50.966;6.968;2023-07-22T06:23:13;16.80;99.00
46440;DHT22;32138;50.966;6.968;2023-07-22T06:24:44;16.80;98.70
46440;DHT22;32138;50.966;6.968;2023-07-22T06:26:15;16.70;98.90
46440;DHT22;32138;50.966;6.968;2023-07-22T06:27:45;16.80;99.00
46440;DHT22;32138;50.966;6.968;2023-07-22T06:29:16;16.80;99.50
46440;DHT22;32138;50.966;6.968;2023-07-22T06:30:47;16.70;99.40
46440;DHT22;32138;50.966;6.968;2023-07-22T06:32:18;16.60;99.00
46440;DHT22;32138;50.966;6.968;2023-07-22T06:33:49;16.70;99.50
46440;DHT22;32138;50.966;6.968;2023-07-22T06:35:19;16.70;99.30
46440;DHT22;32138;50.966;6.968;2023-07-22T06:36:50;16.80;99.00
46440;DHT22;32138;50.966;6.968;2023-07-22T06:38:21;16.80;99.00
46440;DHT22;32138;50.966;6.968;2023-07-22T06:39:52;16.90;99.00
46440;DHT22;32138;50.966;6.968;2023-07-22T06:41:22;16.90;98.80
46440;DHT22;32138;50.966;6.968;2023-07-22T06:42:56;17.00;98.80
46440;DHT22;32138;50.966;6.968;2023-07-22T06:44:26;17.00;98.70
46440;DHT22;32138;50.966;6.968;2023-07-22T06:45:57;17.00;98.70
46440;DHT22;32138;50.966;6.968;2023-07-22T06:47:28;17.00;98.70
46440;DHT22;32138;50.966;6.968;2023-07-22T06:48:59;17.10;98.00
46440;DHT22;32138;50.966;6.968;2023-07-22T06:50:30;17.10;98.40
46440;DHT22;32138;50.966;6.968;2023-07-22T06:52:00;17.20;98.40
46440;DHT22;32138;50.966;6.968;2023-07-22T06:53:32;17.20;97.90
46440;DHT22;32138;50.966;6.968;2023-07-22T06:55:03;17.20;98.20
46440;DHT22;32138;50.966;6.968;2023-07-22T06:56:34;17.30;97.90
46440;DHT22;32138;50.966;6.968;2023-07-22T06:58:05;17.20;98.20
46440;DHT22;32138;50.966;6.968;2023-07-22T06:59:35;17.40;98.10
46440;DHT22;32138;50.966;6.968;2023-07-22T07:01:06;17.50;97.80
46440;DHT22;32138;50.966;6.968;2023-07-22T07:02:37;17.50;97.10
46440;DHT22;32138;50.966;6.968;2023-07-22T07:04:07;17.60;96.30
46440;DHT22;32138;50.966;6.968;2023-07-22T07:05:38;17.70;95.80
46440;DHT22;32138;50.966;6.968;2023-07-22T07:07:13;17.80;95.50
46440;DHT22;32138;50.966;6.968;2023-07-22T07:08:44;17.80;96.20
46440;DHT22;32138;50.966;6.968;2023-07-22T07:10:15;17.70;95.50
46440;DHT22;32138;50.966;6.968;2023-07-22T07:11:46;17.60;94.20
46440;DHT22;32138;50.966;6.968;2023-07-22T07:13:16;17.60;94.20
46440;DHT22;32138;50.966;6.968;2023-07-22T07:14:50;17.70;93.90
46440;DHT22;32138;50.966;6.968;2023-07-22T07:16:26;17.70;93.50
46440;DHT22;32138;50.966;6.968;2023-07-22T07:17:58;17.60;93.80
46440;DHT22;32138;50.966;6.968;2023-07-22T07:19:29;17.70;93.60
46440;DHT22;32138;50.966;6.968;2023-07-22T07:21:00;17.70;93.40
46440;DHT22;32138;50.966;6.968;2023-07-22T07:22:30;17.60;93.40
46440;DHT22;32138;50.966;6.968;2023-07-22T07:24:01;17.60;93.40
46440;DHT22;32138;50.966;6.968;2023-07-22T07:25:32;17.80;93.40
46440;DHT22;32138;50.966;6.968;2023-07-22T07:27:03;17.70;93.20
46440;DHT22;32138;50.966;6.968;2023-07-22T07:28:34;17.80;93.40
46440;DHT22;32138;50.966;6.968;2023-07-22T07:30:05;17.90;93.20
46440;DHT22;32138;50.966;6.968;2023-07-22T07:31:38;17.90;93.20
46440;DHT22;32138;50.966;6.968;2023-07-22T07:33:09;17.90;93.10
46440;DHT22;32138;50.966;6.968;2023-07-22T07:34:40;18.00;93.20
46440;DHT22;32138;50.966;6.968;2023-07-22T07:36:11;18.00;92.70
46440;DHT22;32138;50.966;6.968;2023-07-22T07:37:41;18.00;92.70
46440;DHT22;32138;50.966;6.968;2023-07-22T07:39:12;18.10;92.90
46440;DHT22;32138;50.966;6.968;2023-07-22T07:40:43;18.20;92.50
46440;DHT22;32138;50.966;6.968;2023-07-22T07:42:14;18.20;92.60
46440;DHT22;32138;50.966;6.968;2023-07-22T07:43:44;18.20;92.30
46440;DHT22;32138;50.966;6.968;2023-07-22T07:45:15;18.20;92.30
46440;DHT22;32138;50.966;6.968;2023-07-22T07:46:46;18.20;92.40
46440;DHT22;32138;50.966;6.968;2023-07-22T07:48:17;18.30;92.30
46440;DHT22;32138;50.966;6.968;2023-07-22T07:49:48;18.40;92.30
46440;DHT22;32138;50.966;6.968;2023-07-22T07:51:20;18.40;92.30
46440;DHT22;32138;50.966;6.968;2023-07-22T07:52:51;18.50;92.20
46440;DHT22;32138;50.966;6.968;2023-07-22T07:54:22;18.60;92.00
46440;DHT22;32138;50.966;6.968;2023-07-22T07:55:53;18.60;92.00
46440;DHT22;32138;50.966;6.968;2023-07-22T07:57:23;18.60;91.90
46440;DHT22;32138;50.966;6.968;2023-07-22T07:58:54;18.50;91.70
46440;DHT22;32138;50.966;6.968;2023-07-22T08:00:25;18.50;91.60
46440;DHT22;32138;50.966;6.968;2023-07-22T08:01:56;18.60;91.50
46440;DHT22;32138;50.966;6.968;2023-07-22T08:03:27;18.60;91.40
46440;DHT22;32138;50.966;6.968;2023-07-22T08:04:57;18.70;91.40
46440;DHT22;32138;50.966;6.968;2023-07-22T08:06:28;18.70;91.10
46440;DHT22;32138;50.966;6.968;2023-07-22T08:07:59;18.70;91.20
46440;DHT22;32138;50.966;6.968;2023-07-22T08:09:29;18.60;90.80
46440;DHT22;32138;50.966;6.968;2023-07-22T08:11:04;18.70;91.00
46440;DHT22;32138;50.966;6.968;2023-07-22T08:12:35;18.90;90.60
46440;DHT22;32138;50.966;6.968;2023-07-22T08:14:07;18.90;90.60
46440;DHT22;32138;50.966;6.968;2023-07-22T08:15:38;19.10;90.80
46440;DHT22;32138;50.966;6.968;2023-07-22T08:17:09;19.20;90.70
46440;DHT22;32138;50.966;6.968;2023-07-22T08:18:40;19.30;90.40
46440;DHT22;32138;50.966;6.968;2023-07-22T08:20:11;19.50;90.30
46440;DHT22;32138;50.966;6.968;2023-07-22T08:21:42;19.60;88.60
46440;DHT22;32138;50.966;6.968;2023-07-22T08:23:13;19.40;88.20
46440;DHT22;32138;50.966;6.968;2023-07-22T08:24:44;19.30;89.40
46440;DHT22;32138;50.966;6.968;2023-07-22T08:26:15;19.40;89.60
46440;DHT22;32138;50.966;6.968;2023-07-22T08:27:48;19.40;90.00
46440;DHT22;32138;50.966;6.968;2023-07-22T08:29:19;19.50;90.00
46440;DHT22;32138;50.966;6.968;2023-07-22T08:30:50;19.50;89.00
46440;DHT22;32138;50.966;6.968;2023-07-22T08:32:24;19.40;88.40
46440;DHT22;32138;50.966;6.968;2023-07-22T08:33:55;19.40;88.00
46440;DHT22;32138;50.966;6.968;2023-07-22T08:35:27;19.60;87.90
46440;DHT22;32138;50.966;6.968;2023-07-22T08:36:57;19.60;87.80
46440;DHT22;32138;50.966;6.968;2023-07-22T08:38:28;19.50;87.90
46440;DHT22;32138;50.966;6.968;2023-07-22T08:39:59;19.40;87.90
46440;DHT22;32138;50.966;6.968;2023-07-22T08:41:30;19.50;88.60
46440;DHT22;32138;50.966;6.968;2023-07-22T08:43:05;19.70;87.30
46440;DHT22;32138;50.966;6.968;2023-07-22T08:44:38;19.70;87.30
46440;DHT22;32138;50.966;6.968;2023-07-22T08:46:12;19.70;87.20
46440;DHT22;32138;50.966;6.968;2023-07-22T08:47:47;19.80;86.20
46440;DHT22;32138;50.966;6.968;2023-07-22T08:49:17;20.00;86.40
46440;DHT22;32138;50.966;6.968;2023-07-22T08:50:55;20.00;85.90
46440;DHT22;32138;50.966;6.968;2023-07-22T08:52:33;20.00;84.90
46440;DHT22;32138;50.966;6.968;2023-07-22T08:54:04;19.90;84.30
46440;DHT22;32138;50.966;6.968;2023-07-22T08:55:37;19.90;84.90
46440;DHT22;32138;50.966;6.968;2023-07-22T08:57:11;19.90;83.80
46440;DHT22;32138;50.966;6.968;2023-07-22T08:58:43;19.90;84.40
46440;DHT22;32138;50.966;6.968;2023-07-22T09:00:16;19.70;84.20
46440;DHT22;32138;50.966;6.968;2023-07-22T09:01:48;19.70;85.10
46440;DHT22;32138;50.966;6.968;2023-07-22T09:03:19;19.80;84.40
46440;DHT22;32138;50.966;6.968;2023-07-22T09:04:50;19.90;84.50
46440;DHT22;32138;50.966;6.968;2023-07-22T09:06:21;20.00;84.50
46440;DHT22;32138;50.966;6.968;2023-07-22T09:07:52;20.00;84.30
46440;DHT22;32138;50.966;6.968;2023-07-22T09:09:25;20.10;83.90
46440;DHT22;32138;50.966;6.968;2023-07-22T09:10:56;20.20;84.10
46440;DHT22;32138;50.966;6.968;2023-07-22T09:12:28;20.30;84.00
46440;DHT22;32138;50.966;6.968;2023-07-22T09:14:00;20.40;83.60
46440;DHT22;32138;50.966;6.968;2023-07-22T09:15:35;20.40;83.60
46440;DHT22;32138;50.966;6.968;2023-07-22T09:17:06;20.40;83.60
46440;DHT22;32138;50.966;6.968;2023-07-22T09:18:37;20.40;83.50
46440;DHT22;32138;50.966;6.968;2023-07-22T09:20:08;20.50;82.60
46440;DHT22;32138;50.966;6.968;2023-07-22T09:21:44;20.30;82.70
46440;DHT22;32138;50.966;6.968;2023-07-22T09:23:15;20.30;83.00
46440;DHT22;32138;50.966;6.968;2023-07-22T09:24:46;20.10;83.40
46440;DHT22;32138;50.966;6.968;2023-07-22T09:26:17;20.10;83.20
46440;DHT22;32138;50.966;6.968;2023-07-22T09:27:53;20.10;83.40
46440;DHT22;32138;50.966;6.968;2023-07-22T09:29:35;20.30;83.50
46440;DHT22;32138;50.966;6.968;2023-07-22T09:31:07;20.40;83.30
46440;DHT22;32138;50.966;6.968;2023-07-22T09:32:38;20.60;82.00
46440;DHT22;32138;50.966;6.968;2023-07-22T09:34:10;20.70;81.10
46440;DHT22;32138;50.966;6.968;2023-07-22T09:35:44;20.50;81.40